Alcova, Wyoming
Current Conditions -  °F | °C
As of 1:53 PM on Monday 24 Nov 2014 (Local Time) from KCPR Reporting Station
Scattered Clouds Scattered Clouds  
Wind Chill: 24°   Ceiling: Unl
Heat Index: 35°   Visibility: 10mi
Dew Point: 14°   Wind: 22mph
Humidity: 42%   Direction: 310°NW
Pressure: 30.08"   Gusts: 33mph
Location:  42.55°N, 106.72°W
Report Text: KCPR 242053Z 31019G29KT 10SM SCT090 02/M10 A3008 RMK AO2 PK WND 32029/2048 SLP206 T00171100 53017
Loading
Personal Weather Stations






























Interactive Weather Map New forecast layout! Learn more

10-Day Weather Forecast

Advertisements
Track Severe Weather on mobile